createdAt,value
2019-04-24T00:01:33.257Z,94.00
2019-04-24T00:04:21.713Z,93.90
2019-04-24T00:12:20.838Z,93.90
2019-04-24T00:17:32.426Z,93.80
2019-04-24T00:22:38.181Z,93.70
2019-04-24T00:25:16.095Z,94.20
2019-04-24T00:27:53.298Z,93.70
2019-04-24T00:30:21.306Z,93.90
2019-04-24T00:32:59.561Z,99.90
2019-04-24T00:35:31.099Z,93.70
2019-04-24T00:38:07.684Z,93.80
2019-04-24T00:40:32.917Z,93.70
2019-04-24T00:43:24.090Z,94.50
2019-04-24T00:48:21.705Z,93.70
2019-04-24T00:51:00.159Z,93.70
2019-04-24T00:53:36.063Z,93.70
2019-04-24T00:55:52.974Z,94.00
2019-04-24T00:58:22.533Z,93.70
2019-04-24T01:01:22.563Z,93.80
2019-04-24T01:04:03.586Z,93.60
2019-04-24T01:06:44.407Z,93.60
2019-04-24T01:09:14.685Z,99.90
2019-04-24T01:11:31.279Z,99.90
2019-04-24T01:14:14.290Z,99.90
2019-04-24T01:16:56.126Z,99.90
2019-04-24T01:19:15.898Z,99.90
2019-04-24T01:22:07.953Z,99.90
2019-04-24T01:24:21.191Z,99.90
2019-04-24T01:32:01.421Z,99.90
2019-04-24T01:34:59.784Z,99.90
2019-04-24T01:37:36.866Z,99.90
2019-04-24T01:40:30.408Z,99.90
2019-04-24T01:43:13.743Z,99.90
2019-04-24T01:45:36.857Z,99.90
2019-04-24T01:48:22.165Z,99.90
2019-04-24T01:53:13.168Z,99.90
2019-04-24T01:55:48.319Z,99.90
2019-04-24T02:01:08.656Z,99.90
2019-04-24T02:03:42.222Z,99.90
2019-04-24T02:06:17.421Z,99.90
2019-04-24T02:08:57.823Z,99.90
2019-04-24T02:11:51.833Z,99.90
2019-04-24T02:17:02.436Z,99.90
2019-04-24T02:19:32.206Z,99.90
2019-04-24T02:22:11.167Z,99.90
2019-04-24T02:24:39.558Z,99.90
2019-04-24T02:27:12.002Z,99.90
2019-04-24T02:29:37.948Z,99.90
2019-04-24T02:38:08.447Z,1.00
2019-04-24T02:40:38.113Z,1.00
2019-04-24T02:43:21.378Z,1.00
2019-04-24T02:48:44.085Z,58.10
2019-04-24T02:50:58.282Z,99.90
2019-04-24T02:53:35.317Z,99.90
2019-04-24T02:56:09.867Z,99.90
2019-04-24T02:58:46.012Z,99.90
2019-04-24T03:01:05.410Z,1.00
2019-04-24T03:03:46.014Z,1.00
2019-04-24T03:06:22.933Z,1.00
2019-04-24T03:11:18.877Z,1.00
2019-04-24T03:14:30.156Z,1.00
2019-04-24T03:19:43.868Z,1.00
2019-04-24T03:22:13.595Z,1.00
2019-04-24T03:29:54.351Z,99.90
2019-04-24T03:32:59.936Z,99.90
2019-04-24T04:02:10.257Z,99.90
2019-04-24T04:07:04.943Z,99.90
2019-04-24T04:15:02.648Z,87.90
2019-04-24T04:17:37.871Z,99.90
2019-04-24T04:20:01.221Z,66.00
2019-04-24T04:23:09.382Z,1.00
2019-04-24T04:25:22.524Z,1.00
2019-04-24T04:27:48.190Z,1.00
2019-04-24T04:33:46.107Z,1.00
2019-04-24T04:36:20.793Z,1.00
2019-04-24T04:38:46.040Z,11.80
2019-04-24T04:41:37.379Z,23.60
2019-04-24T04:49:50.544Z,99.90
2019-04-24T04:52:07.788Z,1.00
2019-04-24T04:57:38.483Z,1.00
2019-04-24T04:59:55.587Z,1.00
2019-04-24T05:02:39.288Z,99.90
2019-04-24T05:05:04.305Z,99.90
2019-04-24T05:07:38.304Z,99.90
2019-04-24T05:12:49.366Z,99.90
2019-04-24T05:15:07.469Z,99.90
2019-04-24T05:17:56.839Z,99.90
2019-04-24T05:20:20.939Z,99.90
2019-04-24T05:22:40.803Z,99.90
2019-04-24T05:25:50.261Z,22.80
2019-04-24T05:27:51.465Z,1.00
2019-04-24T05:30:39.861Z,1.00
2019-04-24T05:39:07.719Z,99.90
2019-04-24T05:41:25.178Z,99.90
2019-04-24T05:48:57.073Z,1.00
2019-04-24T05:51:36.086Z,1.00
2019-04-24T05:54:38.482Z,1.00
2019-04-24T06:05:04.333Z,99.90
2019-04-24T06:13:37.459Z,19.10
2019-04-24T06:16:26.465Z,16.70
2019-04-24T06:19:20.879Z,17.80
2019-04-24T06:21:48.756Z,1.00
2019-04-24T06:24:32.506Z,1.00
2019-04-24T06:26:54.684Z,1.00
2019-04-24T06:29:37.093Z,1.00
2019-04-24T06:34:49.831Z,99.90
2019-04-24T06:37:31.791Z,99.90
2019-04-24T06:40:26.859Z,99.90
2019-04-24T06:42:57.877Z,99.90
2019-04-24T06:45:36.205Z,99.90
2019-04-24T07:01:02.314Z,99.90
2019-04-24T07:14:45.790Z,99.90
2019-04-24T07:22:27.297Z,99.90
2019-04-24T07:25:24.432Z,99.90
2019-04-24T07:27:47.170Z,99.90
2019-04-24T07:30:39.964Z,99.90
2019-04-24T07:33:22.899Z,99.90
2019-04-24T07:36:17.621Z,99.90
2019-04-24T07:41:53.866Z,99.90
2019-04-24T07:44:09.135Z,99.90
2019-04-24T07:46:36.454Z,99.90
2019-04-24T07:49:13.791Z,99.90
2019-04-24T07:51:53.391Z,99.90
2019-04-24T07:54:24.269Z,99.90
2019-04-24T08:00:11.302Z,99.90
2019-04-24T08:05:15.960Z,99.90
2019-04-24T08:07:56.562Z,99.90
2019-04-24T08:10:45.050Z,99.90
2019-04-24T08:13:23.391Z,99.90
2019-04-24T08:16:08.606Z,99.90
2019-04-24T08:18:28.087Z,99.90
2019-04-24T08:31:50.289Z,99.90
2019-04-24T08:36:53.312Z,99.90
2019-04-24T08:42:40.876Z,95.90
2019-04-24T08:45:04.358Z,96.60
2019-04-24T08:47:36.032Z,96.50
2019-04-24T08:51:03.771Z,96.50
2019-04-24T08:55:11.865Z,92.60
2019-04-24T08:58:03.799Z,96.10
2019-04-24T09:08:51.839Z,96.50
2019-04-24T09:11:43.328Z,96.20
2019-04-24T09:14:22.791Z,96.20
2019-04-24T09:16:44.740Z,96.50
2019-04-24T09:19:17.287Z,96.30
2019-04-24T09:21:42.913Z,96.30
2019-04-24T09:35:23.528Z,86.50
2019-04-24T09:38:04.516Z,81.50
2019-04-24T09:48:52.789Z,72.50
2019-04-24T09:54:08.724Z,68.60
2019-04-24T09:56:48.402Z,63.90
2019-04-24T10:01:57.513Z,60.00
2019-04-24T10:04:50.532Z,58.70
2019-04-24T10:07:21.591Z,51.20
2019-04-24T10:09:55.981Z,55.30
2019-04-24T10:12:42.770Z,55.30
2019-04-24T10:14:56.813Z,51.20
2019-04-24T10:17:48.005Z,50.90
2019-04-24T10:20:25.477Z,48.00
2019-04-24T10:23:02.240Z,45.30
2019-04-24T10:25:34.929Z,45.60
2019-04-24T10:31:08.756Z,40.30
2019-04-24T10:39:28.049Z,42.20
2019-04-24T10:44:57.636Z,41.10
2019-04-24T10:47:57.751Z,43.40
2019-04-24T10:50:19.878Z,40.10
2019-04-24T10:53:11.120Z,35.30
2019-04-24T10:55:46.065Z,38.00
2019-04-24T10:58:05.349Z,34.00
2019-04-24T11:00:54.346Z,34.70
2019-04-24T11:03:40.358Z,33.70
2019-04-24T11:06:07.086Z,32.10
2019-04-24T11:11:45.591Z,25.40
2019-04-24T11:14:17.254Z,23.60
2019-04-24T11:20:07.507Z,19.30
2019-04-24T11:31:20.248Z,19.80
2019-04-24T11:36:55.741Z,16.10
2019-04-24T11:44:44.391Z,16.50
2019-04-24T12:00:59.733Z,14.70
2019-04-24T12:06:34.260Z,14.60
2019-04-24T12:08:59.469Z,13.60
2019-04-24T12:11:47.276Z,13.80
2019-04-24T12:14:29.003Z,13.30
2019-04-24T12:17:20.951Z,13.90
2019-04-24T12:22:51.509Z,12.90
2019-04-24T12:25:38.568Z,14.50
2019-04-24T12:27:50.254Z,13.90
2019-04-24T12:30:18.620Z,13.90
2019-04-24T12:33:06.328Z,15.50
2019-04-24T12:35:47.981Z,12.70
2019-04-24T12:38:29.005Z,19.10
2019-04-24T12:46:53.775Z,15.60
2019-04-24T12:49:33.126Z,16.20
2019-04-24T12:51:44.397Z,15.40
2019-04-24T13:02:44.222Z,11.80
2019-04-24T13:05:23.204Z,12.80
2019-04-24T13:08:11.409Z,14.80
2019-04-24T13:13:08.365Z,13.40
2019-04-24T13:16:01.459Z,13.50
2019-04-24T13:18:25.038Z,13.60
2019-04-24T13:20:37.550Z,14.30
2019-04-24T13:23:20.059Z,14.40
2019-04-24T13:26:30.076Z,16.00
2019-04-24T13:29:13.501Z,15.80
2019-04-24T13:32:01.918Z,16.60
2019-04-24T13:34:43.124Z,17.90
2019-04-24T13:37:03.210Z,17.90
2019-04-24T13:39:43.407Z,17.70
2019-04-24T13:42:11.564Z,17.20
2019-04-24T13:44:35.050Z,18.60
2019-04-24T13:47:26.157Z,19.60
2019-04-24T13:49:49.834Z,18.20
2019-04-24T13:54:50.949Z,18.50
2019-04-24T13:57:15.095Z,17.40
2019-04-24T14:00:09.357Z,15.70
2019-04-24T14:02:56.539Z,15.40
2019-04-24T14:05:02.380Z,14.30
2019-04-24T14:07:33.706Z,15.60
2019-04-24T14:15:07.446Z,13.50
2019-04-24T14:18:03.996Z,15.80
2019-04-24T14:20:56.191Z,14.70
2019-04-24T14:23:33.722Z,13.70
2019-04-24T14:25:55.854Z,24.60
2019-04-24T14:28:31.903Z,18.20
2019-04-24T14:31:08.619Z,18.10
2019-04-24T14:36:13.720Z,20.10
2019-04-24T14:44:14.372Z,21.20
2019-04-24T14:46:45.377Z,18.90
2019-04-24T14:49:17.083Z,19.80
2019-04-24T14:51:41.292Z,22.70
2019-04-24T14:54:09.766Z,24.10
2019-04-24T14:56:49.054Z,23.90
2019-04-24T15:01:55.596Z,19.30
2019-04-24T15:07:01.270Z,18.60
2019-04-24T15:12:10.639Z,22.60
2019-04-24T15:17:18.672Z,23.50
2019-04-24T15:22:27.811Z,29.00
2019-04-24T15:27:23.657Z,25.40
2019-04-24T15:30:02.411Z,26.90
2019-04-24T15:32:35.310Z,27.30
2019-04-24T15:37:41.362Z,30.00
2019-04-24T15:42:59.872Z,28.90
2019-04-24T15:45:11.885Z,28.50
2019-04-24T15:50:27.428Z,33.80
2019-04-24T15:52:23.523Z,33.60
2019-04-24T15:54:54.300Z,35.00
2019-04-24T15:57:25.589Z,32.50
2019-04-24T16:00:18.596Z,32.30
2019-04-24T16:03:04.780Z,34.10
2019-04-24T16:05:01.341Z,34.20
2019-04-24T16:07:56.007Z,33.40
2019-04-24T16:10:30.799Z,35.80
2019-04-24T16:13:02.794Z,36.70
2019-04-24T16:16:05.182Z,36.10
2019-04-24T16:21:21.168Z,37.70
2019-04-24T16:26:16.653Z,38.80
2019-04-24T16:29:01.058Z,39.30
2019-04-24T16:33:56.258Z,40.40
2019-04-24T16:39:06.159Z,41.00
2019-04-24T16:44:31.048Z,41.00
2019-04-24T16:54:20.026Z,52.50
2019-04-24T16:56:57.674Z,41.10
2019-04-24T16:59:17.989Z,40.10
2019-04-24T17:04:40.259Z,40.40
2019-04-24T17:07:10.962Z,40.10
2019-04-24T17:09:47.735Z,40.40
2019-04-24T17:12:29.208Z,41.50
2019-04-24T17:20:08.164Z,41.50
2019-04-24T17:22:52.828Z,40.30
2019-04-24T17:27:53.298Z,41.10
2019-04-24T17:30:23.397Z,40.50
2019-04-24T17:35:30.258Z,40.90
2019-04-24T17:37:32.910Z,41.30
2019-04-24T17:40:38.873Z,40.40
2019-04-24T17:43:31.323Z,40.60
2019-04-24T17:46:13.265Z,40.50
2019-04-24T17:48:46.260Z,41.00
2019-04-24T17:51:27.738Z,40.90
2019-04-24T17:53:46.440Z,40.60
2019-04-24T17:56:18.517Z,40.60
2019-04-24T17:58:27.449Z,41.80
2019-04-24T18:01:04.584Z,41.50
2019-04-24T18:03:35.246Z,41.20
2019-04-24T18:06:06.115Z,40.30
2019-04-24T18:08:37.222Z,39.40
2019-04-24T18:11:08.070Z,41.40
2019-04-24T18:13:38.626Z,56.60
2019-04-24T18:16:09.191Z,68.60
2019-04-24T18:18:41.109Z,80.10
2019-04-24T18:21:13.719Z,93.30
2019-04-24T18:23:44.248Z,95.80
2019-04-24T18:26:28.108Z,95.70
2019-04-24T18:28:58.939Z,95.80
2019-04-24T18:31:31.661Z,95.50
2019-04-24T18:34:02.432Z,95.40
2019-04-24T18:36:33.917Z,95.00
2019-04-24T18:39:05.089Z,95.60
2019-04-24T18:41:35.567Z,94.90
2019-04-24T18:44:06.283Z,94.80
2019-04-24T18:46:37.636Z,95.20
2019-04-24T18:49:08.583Z,94.70
2019-04-24T18:51:39.613Z,95.50
2019-04-24T18:54:12.020Z,99.10
2019-04-24T18:56:42.456Z,95.10
2019-04-24T18:59:12.979Z,95.10
2019-04-24T19:01:44.002Z,94.30
2019-04-24T19:04:14.886Z,94.30
2019-04-24T19:06:46.346Z,94.20
2019-04-24T19:09:17.317Z,94.80
2019-04-24T19:11:47.983Z,95.50
2019-04-24T19:14:18.620Z,99.90
2019-04-24T19:16:49.250Z,99.90
2019-04-24T19:19:19.813Z,1.00
2019-04-24T19:21:52.010Z,1.00
2019-04-24T19:24:23.335Z,99.90
2019-04-24T19:26:54.189Z,99.90
2019-04-24T19:29:25.085Z,99.90
2019-04-24T19:31:55.802Z,99.90
2019-04-24T19:34:26.911Z,99.90
2019-04-24T19:36:57.547Z,99.90
2019-04-24T19:39:28.336Z,99.90
2019-04-24T19:41:59.247Z,99.90
2019-04-24T19:44:31.430Z,99.90
2019-04-24T19:47:02.615Z,99.90
2019-04-24T19:49:33.535Z,99.90
2019-04-24T19:52:04.091Z,99.90
2019-04-24T19:54:35.084Z,99.90
2019-04-24T19:57:14.620Z,99.90
2019-04-24T19:59:38.498Z,99.90
2019-04-24T20:02:09.491Z,99.90
2019-04-24T20:04:39.983Z,99.90
2019-04-24T20:07:11.347Z,99.90
2019-04-24T20:09:50.938Z,99.90
2019-04-24T20:12:23.009Z,99.90
2019-04-24T20:14:54.695Z,99.90
2019-04-24T20:17:25.610Z,99.90
2019-04-24T20:19:56.410Z,99.90
2019-04-24T20:22:26.997Z,99.90
2019-04-24T20:24:57.890Z,99.90
2019-04-24T20:27:28.563Z,99.90
2019-04-24T20:29:59.455Z,99.90
2019-04-24T20:32:31.211Z,99.90
2019-04-24T20:35:02.145Z,99.90
2019-04-24T20:37:33.563Z,99.90
2019-04-24T20:40:04.978Z,99.90
2019-04-24T20:42:35.912Z,99.90
2019-04-24T20:45:07.583Z,99.90
2019-04-24T20:47:38.187Z,99.90
2019-04-24T20:50:11.629Z,99.90
2019-04-24T20:52:43.091Z,99.90
2019-04-24T20:55:13.821Z,99.90
2019-04-24T20:57:44.326Z,99.90
2019-04-24T21:00:15.558Z,99.90
2019-04-24T21:02:46.353Z,99.90
2019-04-24T21:05:18.432Z,99.90
2019-04-24T21:08:11.355Z,99.90
2019-04-24T21:10:42.310Z,99.90
2019-04-24T21:13:13.545Z,99.90
2019-04-24T21:15:46.040Z,99.90
2019-04-24T21:18:16.406Z,99.90
2019-04-24T21:20:47.320Z,99.90
2019-04-24T21:23:17.796Z,99.90
2019-04-24T21:25:48.387Z,99.90
2019-04-24T21:28:19.013Z,99.90
2019-04-24T21:30:49.690Z,99.90
2019-04-24T21:33:20.909Z,99.90
2019-04-24T21:35:52.305Z,99.90
2019-04-24T21:38:25.669Z,99.90
2019-04-24T21:40:55.381Z,99.90
2019-04-24T21:43:29.032Z,99.90
2019-04-24T21:45:58.687Z,99.90
2019-04-24T21:48:30.360Z,99.90
2019-04-24T21:51:01.964Z,99.90
2019-04-24T21:53:33.738Z,99.90
2019-04-24T21:56:04.573Z,99.90
2019-04-24T21:58:35.444Z,99.90
2019-04-24T22:01:37.567Z,99.90
2019-04-24T22:04:32.100Z,99.90
2019-04-24T22:07:08.882Z,99.90
2019-04-24T22:09:41.495Z,99.90
2019-04-24T22:12:12.329Z,99.90
2019-04-24T22:14:42.817Z,99.90
2019-04-24T22:17:14.370Z,99.90
2019-04-24T22:19:45.869Z,99.90
2019-04-24T22:22:23.497Z,99.90
2019-04-24T22:25:22.255Z,99.90
2019-04-24T22:27:53.359Z,99.90
2019-04-24T22:30:51.828Z,99.90
2019-04-24T22:33:23.910Z,99.90
2019-04-24T22:35:54.927Z,99.90
2019-04-24T22:38:29.187Z,99.90
2019-04-24T22:41:02.544Z,99.90
2019-04-24T22:43:34.344Z,99.90
2019-04-24T22:46:05.214Z,99.90
2019-04-24T22:48:36.642Z,99.90
2019-04-24T22:51:07.265Z,99.90
2019-04-24T22:53:37.835Z,1.00
2019-04-24T22:56:08.697Z,1.00
2019-04-24T22:58:39.277Z,1.00
2019-04-24T23:01:10.603Z,1.00
2019-04-24T23:03:41.240Z,1.00
2019-04-24T23:06:12.547Z,99.90
2019-04-24T23:08:43.294Z,99.90
2019-04-24T23:11:14.089Z,99.90
2019-04-24T23:13:45.485Z,99.90
2019-04-24T23:16:16.586Z,99.90
2019-04-24T23:18:47.127Z,1.00
2019-04-24T23:21:30.546Z,1.00
2019-04-24T23:24:12.150Z,53.60
2019-04-24T23:26:53.633Z,99.90
2019-04-24T23:29:27.265Z,1.00
2019-04-24T23:32:21.264Z,1.00
2019-04-24T23:34:52.672Z,1.00
2019-04-24T23:37:23.254Z,1.00
2019-04-24T23:39:53.825Z,1.00
2019-04-24T23:42:24.350Z,1.00
2019-04-24T23:44:54.935Z,1.00
2019-04-24T23:47:25.563Z,1.00
2019-04-24T23:49:56.127Z,99.90
2019-04-24T23:52:26.942Z,99.90
2019-04-24T23:55:04.181Z,99.90
2019-04-24T23:57:29.776Z,99.90
